createdAt,value
2022-12-23T00:00:06.331Z,946.18
2022-12-23T00:01:06.336Z,946.16
2022-12-23T00:02:06.437Z,946.17
2022-12-23T00:03:06.518Z,946.13
2022-12-23T00:04:06.426Z,946.18
2022-12-23T00:05:06.295Z,946.16
2022-12-23T00:06:06.254Z,946.15
2022-12-23T00:07:06.231Z,946.16
2022-12-23T00:08:06.225Z,946.23
2022-12-23T00:09:06.226Z,946.26
2022-12-23T00:10:06.235Z,946.29
2022-12-23T00:11:06.210Z,946.32
2022-12-23T00:12:06.178Z,946.39
2022-12-23T00:13:06.147Z,946.46
2022-12-23T00:14:06.148Z,946.43
2022-12-23T00:15:06.137Z,946.49
2022-12-23T00:16:06.171Z,946.56
2022-12-23T00:17:12.980Z,946.54
2022-12-23T00:18:06.142Z,946.55
2022-12-23T00:19:06.113Z,946.63
2022-12-23T00:20:06.082Z,946.63
2022-12-23T00:21:08.960Z,946.61
2022-12-23T00:22:06.065Z,946.59
2022-12-23T00:23:06.064Z,946.56
2022-12-23T00:24:06.023Z,946.60
2022-12-23T00:25:05.990Z,946.68
2022-12-23T00:26:05.985Z,946.70
2022-12-23T00:27:05.990Z,946.72
2022-12-23T00:28:05.956Z,946.70
2022-12-23T00:29:05.934Z,946.67
2022-12-23T00:30:05.934Z,946.70
2022-12-23T00:31:05.931Z,946.67
2022-12-23T00:32:05.987Z,946.70
2022-12-23T00:33:05.893Z,946.76
2022-12-23T00:34:05.935Z,946.75
2022-12-23T00:35:05.874Z,946.70
2022-12-23T00:36:05.896Z,946.79
2022-12-23T00:37:05.864Z,946.76
2022-12-23T00:38:05.853Z,946.81
2022-12-23T00:39:05.821Z,946.76
2022-12-23T00:40:06.930Z,946.73
2022-12-23T00:41:05.782Z,946.69
2022-12-23T00:42:05.819Z,946.72
2022-12-23T00:43:05.753Z,946.67
2022-12-23T00:44:05.763Z,946.63
2022-12-23T00:45:05.757Z,946.71
2022-12-23T00:46:05.842Z,946.69
2022-12-23T00:47:05.731Z,946.64
2022-12-23T00:48:05.727Z,946.59
2022-12-23T00:49:05.684Z,946.57
2022-12-23T00:50:05.677Z,946.57
2022-12-23T00:51:05.667Z,946.64
2022-12-23T00:52:05.684Z,946.62
2022-12-23T00:53:05.637Z,946.66
2022-12-23T00:54:05.634Z,946.69
2022-12-23T00:55:05.599Z,946.74
2022-12-23T00:56:05.589Z,946.78
2022-12-23T00:57:05.591Z,946.77
2022-12-23T00:58:05.601Z,946.75
2022-12-23T00:59:05.542Z,946.77
2022-12-23T01:00:05.541Z,946.68
2022-12-23T01:01:05.563Z,946.72
2022-12-23T01:02:05.773Z,946.69
2022-12-23T01:03:05.699Z,946.63
2022-12-23T01:04:05.482Z,946.61
2022-12-23T01:05:05.504Z,946.60
2022-12-23T01:06:05.488Z,946.60
2022-12-23T01:07:05.470Z,946.58
2022-12-23T01:08:05.483Z,946.57
2022-12-23T01:09:05.450Z,946.48
2022-12-23T01:10:05.409Z,946.51
2022-12-23T01:11:05.397Z,946.48
2022-12-23T01:12:05.390Z,946.49
2022-12-23T01:13:05.364Z,946.51
2022-12-23T01:14:05.387Z,946.45
2022-12-23T01:15:05.342Z,946.47
2022-12-23T01:16:05.329Z,946.46
2022-12-23T01:17:05.440Z,946.44
2022-12-23T01:18:05.301Z,946.42
2022-12-23T01:19:05.288Z,946.42
2022-12-23T01:20:05.307Z,946.45
2022-12-23T01:21:05.285Z,946.39
2022-12-23T01:22:05.255Z,946.42
2022-12-23T01:23:05.227Z,946.40
2022-12-23T01:24:05.234Z,946.34
2022-12-23T01:25:05.246Z,946.38
2022-12-23T01:26:05.231Z,946.36
2022-12-23T01:27:05.171Z,946.40
2022-12-23T01:28:05.188Z,946.43
2022-12-23T01:29:05.152Z,946.46
2022-12-23T01:30:05.179Z,946.39
2022-12-23T01:31:05.129Z,946.36
2022-12-23T01:32:05.185Z,946.41
2022-12-23T01:33:05.108Z,946.35
2022-12-23T01:34:05.115Z,946.38
2022-12-23T01:35:05.102Z,946.33
2022-12-23T01:36:05.069Z,946.37
2022-12-23T01:37:05.064Z,946.39
2022-12-23T01:38:05.039Z,946.35
2022-12-23T01:39:05.019Z,946.37
2022-12-23T01:40:05.052Z,946.39
2022-12-23T01:41:04.993Z,946.47
2022-12-23T01:42:04.986Z,946.48
2022-12-23T01:43:04.998Z,946.48
2022-12-23T01:44:04.987Z,946.50
2022-12-23T01:45:04.978Z,946.51
2022-12-23T01:46:05.002Z,946.42
2022-12-23T01:47:04.926Z,946.38
2022-12-23T01:48:04.929Z,946.35
2022-12-23T01:49:04.912Z,946.38
2022-12-23T01:50:04.909Z,946.45
2022-12-23T01:51:04.860Z,946.43
2022-12-23T01:52:04.859Z,946.44
2022-12-23T01:53:08.194Z,946.47
2022-12-23T01:54:04.832Z,946.44
2022-12-23T01:55:04.842Z,946.43
2022-12-23T01:56:04.821Z,946.42
2022-12-23T01:57:04.789Z,946.46
2022-12-23T01:58:04.788Z,946.48
2022-12-23T01:59:04.757Z,946.54
2022-12-23T02:00:04.788Z,946.47
2022-12-23T02:01:04.785Z,946.53
2022-12-23T02:02:04.853Z,946.55
2022-12-23T02:03:04.894Z,946.48
2022-12-23T02:04:04.695Z,946.52
2022-12-23T02:05:04.678Z,946.56
2022-12-23T02:06:04.708Z,946.53
2022-12-23T02:07:04.650Z,946.50
2022-12-23T02:08:04.649Z,946.52
2022-12-23T02:09:04.669Z,946.53
2022-12-23T02:10:04.718Z,946.58
2022-12-23T02:11:04.601Z,946.59
2022-12-23T02:12:04.606Z,946.66
2022-12-23T02:13:04.563Z,946.70
2022-12-23T02:14:04.695Z,946.67
2022-12-23T02:15:04.592Z,946.76
2022-12-23T02:16:04.548Z,946.78
2022-12-23T02:17:04.610Z,946.80
2022-12-23T02:18:04.519Z,946.80
2022-12-23T02:19:04.517Z,946.71
2022-12-23T02:20:04.492Z,946.67
2022-12-23T02:21:04.471Z,946.57
2022-12-23T02:22:04.469Z,946.57
2022-12-23T02:23:04.483Z,946.59
2022-12-23T02:24:04.435Z,946.60
2022-12-23T02:25:04.415Z,946.68
2022-12-23T02:26:04.436Z,946.68
2022-12-23T02:27:04.381Z,946.64
2022-12-23T02:28:04.390Z,946.65
2022-12-23T02:29:04.365Z,946.69
2022-12-23T02:30:04.439Z,946.78
2022-12-23T02:31:04.396Z,946.83
2022-12-23T02:32:04.383Z,946.78
2022-12-23T02:33:04.314Z,946.75
2022-12-23T02:34:04.308Z,946.74
2022-12-23T02:35:04.292Z,946.78
2022-12-23T02:36:04.278Z,946.81
2022-12-23T02:37:04.275Z,946.80
2022-12-23T02:38:04.250Z,946.76
2022-12-23T02:39:04.224Z,946.76
2022-12-23T02:40:04.225Z,946.80
2022-12-23T02:41:04.212Z,946.81
2022-12-23T02:42:04.200Z,946.71
2022-12-23T02:43:04.214Z,946.67
2022-12-23T02:44:04.178Z,946.77
2022-12-23T02:45:04.156Z,946.79
2022-12-23T02:46:04.177Z,946.95
2022-12-23T02:47:04.118Z,947.00
2022-12-23T02:48:04.151Z,946.98
2022-12-23T02:49:04.101Z,946.95
2022-12-23T02:50:04.102Z,946.93
2022-12-23T02:51:04.104Z,946.86
2022-12-23T02:52:04.087Z,946.83
2022-12-23T02:53:04.070Z,946.80
2022-12-23T02:54:04.029Z,946.84
2022-12-23T02:55:04.057Z,946.84
2022-12-23T02:56:04.007Z,946.87
2022-12-23T02:57:04.010Z,946.77
2022-12-23T02:58:03.989Z,946.74
2022-12-23T02:59:03.965Z,946.75
2022-12-23T03:00:03.954Z,946.71
2022-12-23T03:01:04.064Z,946.65
2022-12-23T03:02:04.071Z,946.63
2022-12-23T03:03:04.066Z,946.72
2022-12-23T03:04:06.573Z,946.80
2022-12-23T03:05:03.896Z,946.77
2022-12-23T03:06:03.903Z,946.78
2022-12-23T03:07:07.740Z,946.78
2022-12-23T03:08:03.859Z,946.83
2022-12-23T03:09:03.828Z,946.83
2022-12-23T03:10:03.826Z,946.89
2022-12-23T03:11:03.808Z,946.96
2022-12-23T03:12:03.847Z,947.02
2022-12-23T03:13:03.789Z,946.98
2022-12-23T03:14:03.788Z,946.98
2022-12-23T03:15:03.748Z,946.91
2022-12-23T03:16:03.782Z,946.80
2022-12-23T03:17:03.750Z,946.78
2022-12-23T03:18:03.731Z,946.88
2022-12-23T03:19:03.696Z,946.96
2022-12-23T03:20:03.715Z,947.04
2022-12-23T03:21:03.711Z,947.07
2022-12-23T03:22:03.692Z,946.97
2022-12-23T03:23:03.651Z,947.01
2022-12-23T03:24:03.636Z,947.06
2022-12-23T03:25:03.624Z,947.12
2022-12-23T03:26:03.643Z,947.12
2022-12-23T03:27:03.602Z,947.08
2022-12-23T03:28:03.589Z,947.06
2022-12-23T03:29:03.562Z,947.12
2022-12-23T03:30:03.560Z,947.13
2022-12-23T03:31:03.609Z,947.10
2022-12-23T03:32:03.537Z,947.04
2022-12-23T03:33:03.516Z,947.07
2022-12-23T03:34:03.542Z,947.00
2022-12-23T03:35:03.518Z,946.97
2022-12-23T03:36:03.491Z,947.00
2022-12-23T03:37:03.473Z,947.01
2022-12-23T03:38:03.470Z,946.94
2022-12-23T03:39:03.474Z,946.97
2022-12-23T03:40:03.453Z,947.07
2022-12-23T03:41:03.422Z,947.10
2022-12-23T03:42:03.405Z,947.07
2022-12-23T03:43:03.391Z,947.01
2022-12-23T03:44:03.403Z,947.08
2022-12-23T03:45:37.045Z,947.17
2022-12-23T03:46:03.501Z,947.14
2022-12-23T03:47:03.335Z,947.08
2022-12-23T03:48:03.334Z,947.04
2022-12-23T03:49:03.360Z,947.09
2022-12-23T03:50:03.293Z,947.19
2022-12-23T03:51:03.302Z,947.10
2022-12-23T03:52:03.301Z,947.01
2022-12-23T03:53:03.254Z,946.99
2022-12-23T03:54:03.270Z,946.97
2022-12-23T03:55:03.254Z,947.02
2022-12-23T03:56:03.243Z,947.11
2022-12-23T03:57:03.209Z,947.11
2022-12-23T03:58:03.219Z,947.09
2022-12-23T03:59:03.193Z,947.05
2022-12-23T04:00:03.163Z,947.01
2022-12-23T04:01:03.195Z,947.16
2022-12-23T04:02:03.270Z,947.13
2022-12-23T04:03:03.200Z,947.13
2022-12-23T04:04:03.210Z,947.09
2022-12-23T04:05:03.116Z,947.16
2022-12-23T04:06:03.099Z,947.25
2022-12-23T04:07:03.077Z,947.19
2022-12-23T04:08:03.099Z,947.04
2022-12-23T04:09:03.058Z,947.07
2022-12-23T04:10:03.079Z,947.17
2022-12-23T04:11:03.072Z,947.17
2022-12-23T04:12:03.002Z,947.24
2022-12-23T04:13:03.000Z,947.26
2022-12-23T04:14:02.978Z,947.09
2022-12-23T04:15:07.440Z,946.90
2022-12-23T04:16:03.085Z,946.99
2022-12-23T04:17:02.946Z,947.13
2022-12-23T04:18:02.943Z,947.12
2022-12-23T04:19:02.925Z,947.14
2022-12-23T04:20:02.906Z,947.20
2022-12-23T04:21:02.911Z,947.13
2022-12-23T04:22:02.874Z,947.18
2022-12-23T04:23:02.878Z,947.19
2022-12-23T04:24:02.842Z,947.18
2022-12-23T04:25:02.877Z,947.15
2022-12-23T04:26:02.865Z,947.10
2022-12-23T04:27:02.820Z,947.10
2022-12-23T04:28:02.812Z,947.25
2022-12-23T04:29:02.789Z,947.29
2022-12-23T04:30:02.820Z,947.19
2022-12-23T04:31:02.878Z,947.21
2022-12-23T04:32:02.742Z,947.25
2022-12-23T04:33:02.751Z,947.33
2022-12-23T04:34:02.761Z,947.39
2022-12-23T04:35:02.731Z,947.34
2022-12-23T04:36:02.715Z,947.35
2022-12-23T04:37:02.723Z,947.20
2022-12-23T04:38:02.682Z,947.07
2022-12-23T04:39:02.658Z,947.14
2022-12-23T04:40:02.658Z,947.20
2022-12-23T04:41:02.652Z,947.21
2022-12-23T04:42:02.648Z,947.14
2022-12-23T04:43:02.609Z,947.17
2022-12-23T04:44:02.576Z,947.08
2022-12-23T04:45:02.584Z,947.08
2022-12-23T04:46:02.601Z,947.03
2022-12-23T04:47:02.622Z,946.99
2022-12-23T04:48:02.535Z,946.97
2022-12-23T04:49:02.525Z,947.06
2022-12-23T04:50:02.502Z,947.12
2022-12-23T04:51:02.604Z,946.96
2022-12-23T04:52:02.498Z,946.93
2022-12-23T04:53:02.490Z,946.96
2022-12-23T04:54:02.462Z,947.01
2022-12-23T04:55:02.473Z,947.04
2022-12-23T04:56:02.445Z,947.07
2022-12-23T04:57:02.419Z,947.16
2022-12-23T04:58:02.399Z,947.13
2022-12-23T04:59:02.437Z,947.06
2022-12-23T05:00:02.377Z,947.06
2022-12-23T05:01:02.424Z,947.06
2022-12-23T05:02:02.517Z,947.06
2022-12-23T05:03:02.484Z,947.19
2022-12-23T05:04:02.336Z,947.15
2022-12-23T05:05:02.359Z,947.10
2022-12-23T05:06:02.388Z,947.15
2022-12-23T05:07:02.302Z,947.10
2022-12-23T05:08:02.290Z,947.24
2022-12-23T05:09:02.266Z,947.21
2022-12-23T05:10:02.501Z,947.14
2022-12-23T05:11:02.267Z,947.08
2022-12-23T05:12:02.296Z,946.99
2022-12-23T05:13:02.217Z,947.05
2022-12-23T05:14:02.180Z,947.16
2022-12-23T05:15:02.184Z,947.03
2022-12-23T05:16:02.249Z,946.99
2022-12-23T05:17:07.224Z,947.13
2022-12-23T05:18:02.137Z,947.14
2022-12-23T05:19:02.150Z,947.11
2022-12-23T05:20:02.115Z,947.05
2022-12-23T05:21:02.122Z,947.13
2022-12-23T05:22:02.089Z,947.14
2022-12-23T05:23:02.084Z,947.20
2022-12-23T05:24:02.059Z,947.11
2022-12-23T05:25:02.062Z,947.01
2022-12-23T05:26:02.056Z,947.02
2022-12-23T05:27:02.059Z,947.07
2022-12-23T05:28:02.028Z,946.96
2022-12-23T05:29:02.003Z,947.02
2022-12-23T05:30:01.998Z,947.05
2022-12-23T05:31:01.972Z,946.97
2022-12-23T05:32:02.081Z,947.03
2022-12-23T05:33:01.973Z,946.97
2022-12-23T05:34:06.460Z,947.06
2022-12-23T05:35:01.955Z,947.21
2022-12-23T05:36:01.910Z,947.12
2022-12-23T05:37:01.902Z,947.19
2022-12-23T05:38:01.878Z,947.14
2022-12-23T05:39:01.867Z,947.08
2022-12-23T05:40:01.872Z,947.05
2022-12-23T05:41:01.849Z,947.01
2022-12-23T05:42:01.816Z,947.12
2022-12-23T05:43:01.817Z,947.16
2022-12-23T05:44:01.856Z,947.18
2022-12-23T05:45:01.891Z,947.08
2022-12-23T05:46:01.856Z,947.05
2022-12-23T05:47:01.755Z,947.08
2022-12-23T05:48:01.773Z,947.08
2022-12-23T05:49:01.746Z,947.19
2022-12-23T05:50:01.760Z,947.17
2022-12-23T05:51:01.720Z,947.09
2022-12-23T05:52:01.685Z,947.14
2022-12-23T05:53:01.683Z,947.14
2022-12-23T05:54:01.676Z,947.12
2022-12-23T05:55:01.702Z,947.15
2022-12-23T05:56:01.640Z,947.09
2022-12-23T05:57:01.649Z,947.19
2022-12-23T05:58:01.612Z,947.19
2022-12-23T05:59:01.634Z,947.11
2022-12-23T06:00:01.586Z,947.07
2022-12-23T06:01:01.588Z,947.07
2022-12-23T06:02:01.772Z,947.05
2022-12-23T06:03:01.766Z,947.22
2022-12-23T06:04:01.721Z,947.24
2022-12-23T06:05:01.534Z,947.11
2022-12-23T06:06:01.500Z,947.16
2022-12-23T06:07:01.497Z,947.16
2022-12-23T06:08:01.510Z,947.29
2022-12-23T06:09:01.494Z,947.22
2022-12-23T06:10:01.460Z,947.22
2022-12-23T06:11:01.473Z,947.19
2022-12-23T06:12:01.433Z,947.27
2022-12-23T06:13:01.426Z,947.39
2022-12-23T06:14:01.414Z,947.30
2022-12-23T06:15:01.411Z,947.33
2022-12-23T06:16:01.595Z,947.29
2022-12-23T06:17:01.434Z,947.41
2022-12-23T06:18:01.352Z,947.49
2022-12-23T06:19:01.373Z,947.38
2022-12-23T06:20:01.344Z,947.30
2022-12-23T06:21:01.301Z,947.43
2022-12-23T06:22:01.305Z,947.47
2022-12-23T06:23:01.276Z,947.42
2022-12-23T06:24:01.277Z,947.46
2022-12-23T06:25:01.298Z,947.48
2022-12-23T06:26:01.266Z,947.51
2022-12-23T06:27:01.225Z,947.58
2022-12-23T06:28:01.228Z,947.59
2022-12-23T06:29:01.203Z,947.48
2022-12-23T06:30:01.206Z,947.37
2022-12-23T06:31:01.196Z,947.41
2022-12-23T06:32:01.322Z,947.46
2022-12-23T06:33:01.166Z,947.49
2022-12-23T06:34:01.178Z,947.41
2022-12-23T06:35:01.148Z,947.34
2022-12-23T06:36:01.128Z,947.45
2022-12-23T06:37:01.115Z,947.59
2022-12-23T06:38:01.098Z,947.58
2022-12-23T06:39:01.071Z,947.56
2022-12-23T06:40:01.081Z,947.56
2022-12-23T06:41:01.099Z,947.65
2022-12-23T06:42:01.110Z,947.66
2022-12-23T06:43:01.024Z,947.59
2022-12-23T06:44:00.992Z,947.49
2022-12-23T06:45:01.015Z,947.63
2022-12-23T06:46:01.031Z,947.66
2022-12-23T06:47:01.002Z,947.58
2022-12-23T06:48:00.959Z,947.60
2022-12-23T06:49:00.932Z,947.64
2022-12-23T06:50:00.947Z,947.67
2022-12-23T06:51:00.979Z,947.55
2022-12-23T06:52:00.888Z,947.62
2022-12-23T06:53:00.893Z,947.59
2022-12-23T06:54:00.898Z,947.65
2022-12-23T06:55:00.890Z,947.67
2022-12-23T06:56:00.880Z,947.73
2022-12-23T06:57:00.840Z,947.75
2022-12-23T06:58:00.848Z,947.86
2022-12-23T06:59:00.812Z,947.74
2022-12-23T07:00:00.799Z,947.71
2022-12-23T07:01:00.833Z,947.74
2022-12-23T07:02:01.051Z,947.74
2022-12-23T07:03:01.005Z,947.76
2022-12-23T07:04:00.734Z,947.74
2022-12-23T07:05:00.731Z,947.81
2022-12-23T07:06:00.721Z,947.94
2022-12-23T07:07:00.695Z,947.94
2022-12-23T07:08:00.713Z,948.03
2022-12-23T07:09:00.681Z,947.90
2022-12-23T07:10:00.652Z,947.90
2022-12-23T07:11:00.655Z,947.84
2022-12-23T07:12:00.630Z,947.99
2022-12-23T07:13:00.653Z,947.93
2022-12-23T07:14:00.595Z,948.20
2022-12-23T07:15:00.607Z,948.15
2022-12-23T07:16:00.585Z,947.96
2022-12-23T07:17:00.595Z,947.98
2022-12-23T07:18:00.581Z,947.96
2022-12-23T07:19:00.546Z,947.98
2022-12-23T07:20:00.539Z,948.03
2022-12-23T07:21:00.546Z,948.04
2022-12-23T07:22:00.487Z,948.02
2022-12-23T07:23:00.526Z,948.06
2022-12-23T07:24:00.473Z,948.08
2022-12-23T07:25:00.513Z,947.96
2022-12-23T07:26:00.452Z,948.00
2022-12-23T07:27:00.434Z,948.04
2022-12-23T07:28:00.432Z,947.95
2022-12-23T07:29:00.405Z,947.85
2022-12-23T07:30:00.406Z,947.81
2022-12-23T07:31:00.458Z,947.95
2022-12-23T07:32:00.504Z,947.98
2022-12-23T07:33:00.363Z,948.02
2022-12-23T07:34:00.328Z,947.97
2022-12-23T07:35:00.362Z,947.87
2022-12-23T07:36:00.312Z,947.90
2022-12-23T07:37:00.318Z,947.89
2022-12-23T07:38:00.279Z,947.90
2022-12-23T07:39:00.306Z,947.92
2022-12-23T07:40:06.462Z,947.98
2022-12-23T07:41:00.264Z,947.99
2022-12-23T07:42:24.971Z,948.03
2022-12-23T07:43:00.237Z,947.95
2022-12-23T07:44:00.227Z,948.01
2022-12-23T07:45:00.208Z,947.94
2022-12-23T07:46:01.124Z,947.99
2022-12-23T07:47:00.172Z,947.98
2022-12-23T07:48:00.151Z,947.96
2022-12-23T07:49:00.231Z,948.00
2022-12-23T07:50:00.197Z,948.14
2022-12-23T07:51:00.129Z,948.03
2022-12-23T07:52:00.104Z,948.01
2022-12-23T07:53:00.173Z,948.07
2022-12-23T07:54:00.094Z,948.01
2022-12-23T07:55:00.112Z,948.00
2022-12-23T07:56:00.146Z,948.00
2022-12-23T07:57:00.043Z,948.09
2022-12-23T07:58:00.094Z,948.00
2022-12-23T07:59:00.010Z,948.05
2022-12-23T08:00:00.420Z,948.02
2022-12-23T08:00:59.989Z,947.97
2022-12-23T08:02:00.142Z,947.90
2022-12-23T08:03:00.067Z,947.96
2022-12-23T08:03:59.952Z,947.99
2022-12-23T08:04:59.974Z,947.95
2022-12-23T08:05:59.922Z,947.94
2022-12-23T08:06:59.922Z,947.87
2022-12-23T08:07:59.889Z,947.85
2022-12-23T08:08:59.898Z,947.87
2022-12-23T08:09:59.865Z,947.92
2022-12-23T08:10:59.851Z,948.00
2022-12-23T08:11:59.850Z,948.04
2022-12-23T08:12:59.829Z,948.03
2022-12-23T08:13:59.846Z,948.06
2022-12-23T08:14:59.823Z,948.05
2022-12-23T08:15:59.794Z,948.03
2022-12-23T08:17:00.059Z,948.05
2022-12-23T08:17:59.776Z,948.08
2022-12-23T08:18:59.759Z,948.12
2022-12-23T08:19:59.766Z,948.12
2022-12-23T08:20:59.722Z,948.16
2022-12-23T08:21:59.747Z,948.36
2022-12-23T08:22:59.694Z,948.41
2022-12-23T08:23:59.685Z,948.43
2022-12-23T08:24:59.664Z,948.43
2022-12-23T08:25:59.685Z,948.45
2022-12-23T08:26:59.635Z,948.51
2022-12-23T08:27:59.638Z,948.43
2022-12-23T08:28:59.614Z,948.45
2022-12-23T08:29:59.635Z,948.45
2022-12-23T08:30:59.650Z,948.49
2022-12-23T08:31:59.588Z,948.54
2022-12-23T08:32:59.552Z,948.57
2022-12-23T08:33:59.561Z,948.59
2022-12-23T08:34:59.558Z,948.62
2022-12-23T08:35:59.526Z,948.58
2022-12-23T08:36:59.497Z,948.64
2022-12-23T08:37:59.528Z,948.65
2022-12-23T08:38:59.474Z,948.70
2022-12-23T08:39:59.511Z,948.71
2022-12-23T08:40:59.462Z,948.72
2022-12-23T08:41:59.452Z,948.77
2022-12-23T08:42:59.457Z,948.72
2022-12-23T08:43:59.436Z,948.72
2022-12-23T08:44:59.421Z,948.75
2022-12-23T08:45:59.448Z,948.66
2022-12-23T08:46:59.381Z,948.64
2022-12-23T08:47:59.366Z,948.62
2022-12-23T08:48:59.379Z,948.72
2022-12-23T08:49:59.342Z,948.67
2022-12-23T08:50:59.312Z,948.60
2022-12-23T08:51:59.331Z,948.67
2022-12-23T08:52:59.290Z,948.70
2022-12-23T08:54:01.113Z,948.73
2022-12-23T08:54:59.263Z,948.73
2022-12-23T08:55:59.297Z,948.61
2022-12-23T08:56:59.228Z,948.61
2022-12-23T08:57:59.241Z,948.64
2022-12-23T08:58:59.206Z,948.67
2022-12-23T08:59:59.216Z,948.68
2022-12-23T09:00:59.242Z,948.71
2022-12-23T09:01:59.357Z,948.70
2022-12-23T09:02:59.312Z,948.64
2022-12-23T09:03:59.352Z,948.70
2022-12-23T09:04:59.148Z,948.67
2022-12-23T09:05:59.165Z,948.68
2022-12-23T09:06:59.147Z,948.69
2022-12-23T09:07:59.104Z,948.64
2022-12-23T09:08:59.072Z,948.63
2022-12-23T09:09:59.076Z,948.59
2022-12-23T09:10:59.077Z,948.69
2022-12-23T09:11:59.082Z,948.76
2022-12-23T09:12:59.034Z,948.70
2022-12-23T09:13:59.032Z,948.67
2022-12-23T09:14:59.029Z,948.61
2022-12-23T09:15:59.095Z,948.48
2022-12-23T09:16:59.005Z,948.54
2022-12-23T09:17:58.962Z,948.60
2022-12-23T09:18:58.958Z,948.63
2022-12-23T09:19:58.945Z,948.60
2022-12-23T09:20:59.021Z,948.58
2022-12-23T09:21:58.925Z,948.67
2022-12-23T09:22:58.897Z,948.60
2022-12-23T09:23:58.914Z,948.68
2022-12-23T09:25:04.756Z,948.65
2022-12-23T09:25:58.874Z,948.68
2022-12-23T09:26:58.850Z,948.67
2022-12-23T09:27:58.865Z,948.64
2022-12-23T09:28:58.864Z,948.68
2022-12-23T09:29:58.820Z,948.61
2022-12-23T09:30:58.818Z,948.59
2022-12-23T09:31:58.917Z,948.61
2022-12-23T09:32:58.758Z,948.60
2022-12-23T09:33:58.794Z,948.53
2022-12-23T09:34:58.739Z,948.56
2022-12-23T09:35:58.741Z,948.60
2022-12-23T09:36:58.712Z,948.69
2022-12-23T09:37:58.697Z,948.69
2022-12-23T09:38:58.729Z,948.68
2022-12-23T09:39:58.693Z,948.76
2022-12-23T09:40:58.661Z,948.77
2022-12-23T09:41:58.683Z,948.76
2022-12-23T09:42:58.631Z,948.82
2022-12-23T09:43:58.657Z,948.84
2022-12-23T09:44:58.616Z,948.82
2022-12-23T09:45:58.621Z,948.86
2022-12-23T09:46:58.716Z,948.89
2022-12-23T09:47:58.575Z,948.89
2022-12-23T09:48:58.545Z,948.92
2022-12-23T09:49:58.557Z,948.90
2022-12-23T09:50:58.551Z,948.92
2022-12-23T09:51:58.575Z,948.91
2022-12-23T09:52:58.499Z,948.90
2022-12-23T09:53:58.524Z,948.84
2022-12-23T09:54:58.486Z,948.86
2022-12-23T09:55:58.470Z,948.88
2022-12-23T09:56:58.507Z,948.86
2022-12-23T09:57:58.460Z,948.80
2022-12-23T09:58:58.409Z,948.76
2022-12-23T09:59:58.428Z,948.85
2022-12-23T10:00:58.434Z,948.89
2022-12-23T10:01:58.579Z,948.89
2022-12-23T10:02:58.641Z,948.83
2022-12-23T10:03:58.412Z,948.80
2022-12-23T10:04:58.356Z,948.89
2022-12-23T10:05:58.359Z,948.90
2022-12-23T10:07:02.792Z,948.96
2022-12-23T10:07:58.351Z,948.93
2022-12-23T10:08:58.305Z,948.97
2022-12-23T10:09:58.311Z,948.92
2022-12-23T10:10:58.256Z,948.94
2022-12-23T10:11:58.255Z,948.97
2022-12-23T10:12:58.232Z,949.02
2022-12-23T10:13:58.245Z,948.98
2022-12-23T10:14:58.237Z,949.02
2022-12-23T10:15:58.333Z,949.00
2022-12-23T10:16:58.189Z,948.99
2022-12-23T10:17:58.195Z,948.92
2022-12-23T10:18:58.183Z,948.87
2022-12-23T10:19:58.173Z,948.90
2022-12-23T10:20:58.155Z,948.85
2022-12-23T10:21:58.117Z,948.75
2022-12-23T10:22:58.128Z,948.65
2022-12-23T10:23:58.105Z,948.68
2022-12-23T10:24:58.104Z,948.68
2022-12-23T10:25:58.067Z,948.74
2022-12-23T10:26:58.088Z,948.74
2022-12-23T10:27:58.048Z,948.72
2022-12-23T10:28:58.080Z,948.73
2022-12-23T10:29:58.043Z,948.76
2022-12-23T10:31:23.731Z,948.73
2022-12-23T10:31:58.067Z,948.69
2022-12-23T10:32:58.012Z,948.63
2022-12-23T10:33:57.970Z,948.66
2022-12-23T10:34:57.979Z,948.68
2022-12-23T10:35:58.012Z,948.77
2022-12-23T10:36:57.980Z,948.69
2022-12-23T10:37:57.913Z,948.64
2022-12-23T10:38:57.887Z,948.65
2022-12-23T10:39:57.928Z,948.64
2022-12-23T10:40:59.430Z,948.60
2022-12-23T10:41:57.868Z,948.56
2022-12-23T10:42:57.838Z,948.57
2022-12-23T10:43:57.841Z,948.53
2022-12-23T10:44:57.820Z,948.49
2022-12-23T10:45:57.834Z,948.41
2022-12-23T10:46:57.877Z,948.32
2022-12-23T10:47:57.823Z,948.37
2022-12-23T10:48:57.786Z,948.31
2022-12-23T10:49:57.757Z,948.28
2022-12-23T10:50:57.758Z,948.25
2022-12-23T10:51:57.752Z,948.25
2022-12-23T10:52:57.735Z,948.14
2022-12-23T10:53:57.707Z,948.15
2022-12-23T10:54:57.672Z,948.15
2022-12-23T10:55:57.683Z,948.09
2022-12-23T10:56:57.675Z,948.09
2022-12-23T10:57:57.674Z,948.12
2022-12-23T10:58:57.635Z,948.19
2022-12-23T10:59:57.639Z,948.19
2022-12-23T11:00:57.731Z,948.22
2022-12-23T11:01:57.940Z,948.27
2022-12-23T11:02:57.632Z,948.27
2022-12-23T11:03:57.567Z,948.29
2022-12-23T11:04:57.549Z,948.30
2022-12-23T11:05:57.580Z,948.27
2022-12-23T11:07:26.479Z,948.26
2022-12-23T11:07:57.519Z,948.25
2022-12-23T11:08:57.491Z,948.29
2022-12-23T11:09:57.492Z,948.30
2022-12-23T11:10:57.492Z,948.27
2022-12-23T11:11:57.496Z,948.24
2022-12-23T11:12:57.439Z,948.29
2022-12-23T11:13:57.430Z,948.31
2022-12-23T11:14:57.411Z,948.26
2022-12-23T11:15:57.464Z,948.21
2022-12-23T11:16:57.407Z,948.17
2022-12-23T11:17:57.395Z,948.22
2022-12-23T11:18:57.365Z,948.16
2022-12-23T11:19:57.361Z,948.19
2022-12-23T11:20:57.329Z,948.21
2022-12-23T11:21:57.354Z,948.25
2022-12-23T11:22:57.326Z,948.21
2022-12-23T11:23:57.305Z,948.19
2022-12-23T11:24:57.282Z,948.12
2022-12-23T11:25:57.290Z,948.16
2022-12-23T11:26:57.304Z,948.20
2022-12-23T11:27:57.288Z,948.12
2022-12-23T11:28:57.233Z,948.15
2022-12-23T11:29:57.225Z,948.17
2022-12-23T11:30:57.344Z,948.15
2022-12-23T11:31:57.317Z,948.14
2022-12-23T11:32:57.180Z,948.15
2022-12-23T11:33:57.175Z,948.16
2022-12-23T11:34:57.339Z,948.14
2022-12-23T11:35:57.148Z,948.10
2022-12-23T11:37:01.871Z,948.07
2022-12-23T11:37:57.131Z,948.11
2022-12-23T11:38:57.121Z,948.02
2022-12-23T11:39:57.092Z,948.04
2022-12-23T11:40:57.068Z,948.02
2022-12-23T11:41:57.054Z,947.97
2022-12-23T11:42:57.050Z,947.91
2022-12-23T11:43:57.062Z,947.93
2022-12-23T11:44:57.030Z,947.95
2022-12-23T11:45:57.124Z,947.96
2022-12-23T11:46:57.008Z,947.98
2022-12-23T11:47:57.024Z,947.93
2022-12-23T11:48:56.966Z,947.95
2022-12-23T11:49:56.963Z,947.93
2022-12-23T11:50:56.933Z,947.95
2022-12-23T11:51:56.956Z,947.99
2022-12-23T11:52:56.918Z,947.98
2022-12-23T11:53:56.914Z,947.99
2022-12-23T11:54:56.935Z,947.97
2022-12-23T11:55:56.908Z,947.96
2022-12-23T11:56:56.934Z,947.94
2022-12-23T11:57:56.853Z,947.93
2022-12-23T11:58:56.826Z,947.94
2022-12-23T11:59:56.862Z,947.90
2022-12-23T12:00:56.848Z,947.89
2022-12-23T12:01:56.877Z,947.89
2022-12-23T12:02:56.815Z,947.89
2022-12-23T12:03:56.890Z,947.86
2022-12-23T12:04:56.770Z,947.82
2022-12-23T12:05:56.775Z,947.80
2022-12-23T12:06:57.003Z,947.79
2022-12-23T12:07:56.702Z,947.78
2022-12-23T12:08:56.712Z,947.78
2022-12-23T12:09:56.720Z,947.72
2022-12-23T12:10:56.728Z,947.78
2022-12-23T12:11:56.678Z,947.70
2022-12-23T12:12:56.692Z,947.72
2022-12-23T12:13:56.656Z,947.67
2022-12-23T12:14:56.634Z,947.66
2022-12-23T12:15:56.633Z,947.64
2022-12-23T12:16:56.700Z,947.72
2022-12-23T12:17:56.568Z,947.69
2022-12-23T12:18:56.618Z,947.64
2022-12-23T12:19:56.537Z,947.66
2022-12-23T12:20:56.538Z,947.59
2022-12-23T12:21:56.525Z,947.66
2022-12-23T12:22:56.517Z,947.65
2022-12-23T12:24:17.070Z,947.67
2022-12-23T12:24:56.521Z,947.65
2022-12-23T12:25:56.470Z,947.69
2022-12-23T12:26:56.480Z,947.65
2022-12-23T12:27:56.440Z,947.61